sensor_id;sensor_type;location;lat;lon;timestamp;P1;durP1;ratioP1;P2;durP2;ratioP2
4084;SDS011;2057;50.858;6.572;2024-01-07T00:01:46;95.50;;;39.03;;
4084;SDS011;2057;50.858;6.572;2024-01-07T00:04:15;74.57;;;33.33;;
4084;SDS011;2057;50.858;6.572;2024-01-07T00:06:40;91.30;;;36.45;;
4084;SDS011;2057;50.858;6.572;2024-01-07T00:09:06;79.83;;;35.10;;
4084;SDS011;2057;50.858;6.572;2024-01-07T00:11:35;80.80;;;35.65;;
4084;SDS011;2057;50.858;6.572;2024-01-07T00:14:00;101.05;;;37.95;;
4084;SDS011;2057;50.858;6.572;2024-01-07T00:16:25;104.90;;;40.33;;
4084;SDS011;2057;50.858;6.572;2024-01-07T00:18:51;93.83;;;39.70;;
4084;SDS011;2057;50.858;6.572;2024-01-07T00:21:18;106.25;;;39.30;;
4084;SDS011;2057;50.858;6.572;2024-01-07T00:23:46;90.85;;;42.17;;
4084;SDS011;2057;50.858;6.572;2024-01-07T00:26:14;104.13;;;37.22;;
4084;SDS011;2057;50.858;6.572;2024-01-07T00:28:39;80.00;;;36.47;;
4084;SDS011;2057;50.858;6.572;2024-01-07T00:31:08;94.93;;;41.60;;
4084;SDS011;2057;50.858;6.572;2024-01-07T00:33:34;92.97;;;39.20;;
4084;SDS011;2057;50.858;6.572;2024-01-07T00:36:01;101.60;;;40.03;;
4084;SDS011;2057;50.858;6.572;2024-01-07T00:38:26;114.72;;;39.10;;
4084;SDS011;2057;50.858;6.572;2024-01-07T00:40:52;87.83;;;36.23;;
4084;SDS011;2057;50.858;6.572;2024-01-07T00:43:17;171.23;;;42.60;;
4084;SDS011;2057;50.858;6.572;2024-01-07T00:45:43;174.20;;;41.60;;
4084;SDS011;2057;50.858;6.572;2024-01-07T00:48:08;127.47;;;40.77;;
4084;SDS011;2057;50.858;6.572;2024-01-07T00:50:34;113.27;;;41.63;;
4084;SDS011;2057;50.858;6.572;2024-01-07T00:52:59;124.57;;;40.57;;
4084;SDS011;2057;50.858;6.572;2024-01-07T00:55:24;108.37;;;40.70;;
4084;SDS011;2057;50.858;6.572;2024-01-07T00:57:50;98.37;;;42.20;;
4084;SDS011;2057;50.858;6.572;2024-01-07T01:00:16;102.00;;;39.70;;
4084;SDS011;2057;50.858;6.572;2024-01-07T01:02:41;91.77;;;38.90;;
4084;SDS011;2057;50.858;6.572;2024-01-07T01:05:07;109.13;;;42.43;;
4084;SDS011;2057;50.858;6.572;2024-01-07T01:07:32;98.93;;;41.83;;
4084;SDS011;2057;50.858;6.572;2024-01-07T01:10:01;94.60;;;40.10;;
4084;SDS011;2057;50.858;6.572;2024-01-07T01:12:29;90.40;;;37.10;;
4084;SDS011;2057;50.858;6.572;2024-01-07T01:14:54;92.45;;;41.58;;
4084;SDS011;2057;50.858;6.572;2024-01-07T01:17:19;89.17;;;41.47;;
4084;SDS011;2057;50.858;6.572;2024-01-07T01:19:47;97.60;;;40.92;;
4084;SDS011;2057;50.858;6.572;2024-01-07T01:22:15;90.38;;;39.58;;
4084;SDS011;2057;50.858;6.572;2024-01-07T01:24:41;94.60;;;42.03;;
4084;SDS011;2057;50.858;6.572;2024-01-07T01:27:09;89.38;;;39.45;;
4084;SDS011;2057;50.858;6.572;2024-01-07T01:29:35;90.65;;;40.17;;
4084;SDS011;2057;50.858;6.572;2024-01-07T01:32:01;93.00;;;42.33;;
4084;SDS011;2057;50.858;6.572;2024-01-07T01:34:26;103.47;;;40.87;;
4084;SDS011;2057;50.858;6.572;2024-01-07T01:36:51;95.80;;;41.97;;
4084;SDS011;2057;50.858;6.572;2024-01-07T01:39:17;89.00;;;42.00;;
4084;SDS011;2057;50.858;6.572;2024-01-07T01:41:45;94.43;;;43.42;;
4084;SDS011;2057;50.858;6.572;2024-01-07T01:44:11;99.10;;;42.28;;
4084;SDS011;2057;50.858;6.572;2024-01-07T01:46:36;92.13;;;43.77;;
4084;SDS011;2057;50.858;6.572;2024-01-07T01:49:04;100.87;;;42.67;;
4084;SDS011;2057;50.858;6.572;2024-01-07T01:51:31;99.70;;;41.67;;
4084;SDS011;2057;50.858;6.572;2024-01-07T01:53:57;100.83;;;42.43;;
4084;SDS011;2057;50.858;6.572;2024-01-07T01:56:23;91.20;;;39.97;;
4084;SDS011;2057;50.858;6.572;2024-01-07T01:58:52;100.47;;;40.95;;
4084;SDS011;2057;50.858;6.572;2024-01-07T02:01:18;98.30;;;39.83;;
4084;SDS011;2057;50.858;6.572;2024-01-07T02:03:43;101.40;;;40.03;;
4084;SDS011;2057;50.858;6.572;2024-01-07T02:06:11;90.47;;;39.35;;
4084;SDS011;2057;50.858;6.572;2024-01-07T02:08:37;94.87;;;37.80;;
4084;SDS011;2057;50.858;6.572;2024-01-07T02:11:19;96.07;;;39.03;;
4084;SDS011;2057;50.858;6.572;2024-01-07T02:13:48;87.43;;;35.55;;
4084;SDS011;2057;50.858;6.572;2024-01-07T02:16:14;88.10;;;36.42;;
4084;SDS011;2057;50.858;6.572;2024-01-07T02:18:43;90.77;;;39.27;;
4084;SDS011;2057;50.858;6.572;2024-01-07T02:21:15;86.20;;;37.45;;
4084;SDS011;2057;50.858;6.572;2024-01-07T02:23:42;81.40;;;36.20;;
4084;SDS011;2057;50.858;6.572;2024-01-07T02:26:08;80.67;;;38.10;;
4084;SDS011;2057;50.858;6.572;2024-01-07T02:28:33;78.50;;;34.10;;
4084;SDS011;2057;50.858;6.572;2024-01-07T02:30:58;81.83;;;33.30;;
4084;SDS011;2057;50.858;6.572;2024-01-07T02:33:24;90.40;;;38.23;;
4084;SDS011;2057;50.858;6.572;2024-01-07T02:35:49;71.30;;;32.13;;
4084;SDS011;2057;50.858;6.572;2024-01-07T02:38:15;87.90;;;35.67;;
4084;SDS011;2057;50.858;6.572;2024-01-07T02:40:40;79.83;;;35.40;;
4084;SDS011;2057;50.858;6.572;2024-01-07T02:43:06;86.10;;;36.27;;
4084;SDS011;2057;50.858;6.572;2024-01-07T02:45:31;86.17;;;34.70;;
4084;SDS011;2057;50.858;6.572;2024-01-07T02:47:56;71.40;;;34.43;;
4084;SDS011;2057;50.858;6.572;2024-01-07T02:50:22;76.40;;;33.77;;
4084;SDS011;2057;50.858;6.572;2024-01-07T02:52:47;76.63;;;33.60;;
4084;SDS011;2057;50.858;6.572;2024-01-07T02:55:12;83.50;;;36.37;;
4084;SDS011;2057;50.858;6.572;2024-01-07T02:57:38;76.77;;;33.10;;
4084;SDS011;2057;50.858;6.572;2024-01-07T03:00:03;67.97;;;32.67;;
4084;SDS011;2057;50.858;6.572;2024-01-07T03:02:30;79.15;;;32.40;;
4084;SDS011;2057;50.858;6.572;2024-01-07T03:04:55;77.43;;;31.30;;
4084;SDS011;2057;50.858;6.572;2024-01-07T03:07:20;66.23;;;30.00;;
4084;SDS011;2057;50.858;6.572;2024-01-07T03:09:46;60.70;;;27.37;;
4084;SDS011;2057;50.858;6.572;2024-01-07T03:12:14;74.65;;;29.67;;
4084;SDS011;2057;50.858;6.572;2024-01-07T03:14:42;64.75;;;28.45;;
4084;SDS011;2057;50.858;6.572;2024-01-07T03:17:12;65.65;;;29.10;;
4084;SDS011;2057;50.858;6.572;2024-01-07T03:19:40;60.95;;;28.98;;
4084;SDS011;2057;50.858;6.572;2024-01-07T03:22:06;55.47;;;27.30;;
4084;SDS011;2057;50.858;6.572;2024-01-07T03:24:32;57.70;;;25.77;;
4084;SDS011;2057;50.858;6.572;2024-01-07T03:26:58;58.77;;;27.53;;
4084;SDS011;2057;50.858;6.572;2024-01-07T03:29:23;71.17;;;29.40;;
4084;SDS011;2057;50.858;6.572;2024-01-07T03:31:48;69.20;;;29.30;;
4084;SDS011;2057;50.858;6.572;2024-01-07T03:34:18;68.95;;;28.83;;
4084;SDS011;2057;50.858;6.572;2024-01-07T03:36:44;60.90;;;29.25;;
4084;SDS011;2057;50.858;6.572;2024-01-07T03:39:10;78.13;;;30.57;;
4084;SDS011;2057;50.858;6.572;2024-01-07T03:41:35;58.20;;;28.87;;
4084;SDS011;2057;50.858;6.572;2024-01-07T03:44:03;65.50;;;28.35;;
4084;SDS011;2057;50.858;6.572;2024-01-07T03:46:28;62.57;;;28.80;;
4084;SDS011;2057;50.858;6.572;2024-01-07T03:48:54;59.80;;;30.20;;
4084;SDS011;2057;50.858;6.572;2024-01-07T03:51:19;57.27;;;29.50;;
4084;SDS011;2057;50.858;6.572;2024-01-07T03:53:44;54.93;;;32.00;;
4084;SDS011;2057;50.858;6.572;2024-01-07T03:56:10;51.17;;;27.73;;
4084;SDS011;2057;50.858;6.572;2024-01-07T03:58:35;54.17;;;28.50;;
4084;SDS011;2057;50.858;6.572;2024-01-07T04:01:00;62.17;;;29.87;;
4084;SDS011;2057;50.858;6.572;2024-01-07T04:03:26;53.23;;;28.70;;
4084;SDS011;2057;50.858;6.572;2024-01-07T04:05:51;47.33;;;25.20;;
4084;SDS011;2057;50.858;6.572;2024-01-07T04:08:16;55.30;;;28.37;;
4084;SDS011;2057;50.858;6.572;2024-01-07T04:10:44;67.28;;;31.83;;
4084;SDS011;2057;50.858;6.572;2024-01-07T04:13:12;51.03;;;28.75;;
4084;SDS011;2057;50.858;6.572;2024-01-07T04:15:40;47.50;;;28.23;;
4084;SDS011;2057;50.858;6.572;2024-01-07T04:18:05;48.27;;;27.53;;
4084;SDS011;2057;50.858;6.572;2024-01-07T04:20:33;50.40;;;26.73;;
4084;SDS011;2057;50.858;6.572;2024-01-07T04:23:01;47.28;;;25.50;;
4084;SDS011;2057;50.858;6.572;2024-01-07T04:25:27;53.20;;;25.77;;
4084;SDS011;2057;50.858;6.572;2024-01-07T04:27:52;42.27;;;24.13;;
4084;SDS011;2057;50.858;6.572;2024-01-07T04:30:17;42.33;;;23.00;;
4084;SDS011;2057;50.858;6.572;2024-01-07T04:32:45;40.40;;;20.95;;
4084;SDS011;2057;50.858;6.572;2024-01-07T04:35:10;46.70;;;23.50;;
4084;SDS011;2057;50.858;6.572;2024-01-07T04:37:37;40.33;;;24.17;;
4084;SDS011;2057;50.858;6.572;2024-01-07T04:40:02;36.40;;;19.92;;
4084;SDS011;2057;50.858;6.572;2024-01-07T04:42:28;34.40;;;19.23;;
4084;SDS011;2057;50.858;6.572;2024-01-07T04:44:53;32.57;;;18.40;;
4084;SDS011;2057;50.858;6.572;2024-01-07T04:47:25;31.63;;;19.90;;
4084;SDS011;2057;50.858;6.572;2024-01-07T04:50:03;30.45;;;18.65;;
4084;SDS011;2057;50.858;6.572;2024-01-07T04:52:29;34.25;;;21.38;;
4084;SDS011;2057;50.858;6.572;2024-01-07T04:54:54;43.80;;;21.33;;
4084;SDS011;2057;50.858;6.572;2024-01-07T04:57:20;31.60;;;18.97;;
4084;SDS011;2057;50.858;6.572;2024-01-07T04:59:46;42.57;;;21.57;;
4084;SDS011;2057;50.858;6.572;2024-01-07T05:02:15;35.10;;;18.85;;
4084;SDS011;2057;50.858;6.572;2024-01-07T05:04:41;37.20;;;20.40;;
4084;SDS011;2057;50.858;6.572;2024-01-07T05:07:07;38.95;;;19.40;;
4084;SDS011;2057;50.858;6.572;2024-01-07T05:09:32;34.53;;;17.67;;
4084;SDS011;2057;50.858;6.572;2024-01-07T05:11:58;38.63;;;20.07;;
4084;SDS011;2057;50.858;6.572;2024-01-07T05:14:24;34.63;;;18.87;;
4084;SDS011;2057;50.858;6.572;2024-01-07T05:16:49;37.00;;;19.90;;
4084;SDS011;2057;50.858;6.572;2024-01-07T05:19:15;28.30;;;17.43;;
4084;SDS011;2057;50.858;6.572;2024-01-07T05:21:40;32.87;;;18.57;;
4084;SDS011;2057;50.858;6.572;2024-01-07T05:24:05;34.87;;;18.20;;
4084;SDS011;2057;50.858;6.572;2024-01-07T05:26:41;36.58;;;18.77;;
4084;SDS011;2057;50.858;6.572;2024-01-07T05:29:07;35.58;;;19.90;;
4084;SDS011;2057;50.858;6.572;2024-01-07T05:31:32;34.27;;;18.43;;
4084;SDS011;2057;50.858;6.572;2024-01-07T05:33:58;40.97;;;18.23;;
4084;SDS011;2057;50.858;6.572;2024-01-07T05:36:23;30.13;;;16.60;;
4084;SDS011;2057;50.858;6.572;2024-01-07T05:38:51;37.70;;;20.67;;
4084;SDS011;2057;50.858;6.572;2024-01-07T05:41:16;33.40;;;18.70;;
4084;SDS011;2057;50.858;6.572;2024-01-07T05:43:42;30.47;;;17.83;;
4084;SDS011;2057;50.858;6.572;2024-01-07T05:46:10;35.80;;;18.25;;
4084;SDS011;2057;50.858;6.572;2024-01-07T05:48:49;30.38;;;17.15;;
4084;SDS011;2057;50.858;6.572;2024-01-07T05:51:14;29.10;;;16.90;;
4084;SDS011;2057;50.858;6.572;2024-01-07T05:53:41;32.35;;;18.02;;
4084;SDS011;2057;50.858;6.572;2024-01-07T05:56:08;34.35;;;18.23;;
4084;SDS011;2057;50.858;6.572;2024-01-07T05:58:34;26.57;;;16.93;;
4084;SDS011;2057;50.858;6.572;2024-01-07T06:00:59;37.40;;;19.73;;
4084;SDS011;2057;50.858;6.572;2024-01-07T06:03:25;28.10;;;17.35;;
4084;SDS011;2057;50.858;6.572;2024-01-07T06:05:51;31.10;;;19.17;;
4084;SDS011;2057;50.858;6.572;2024-01-07T06:08:16;36.20;;;18.50;;
4084;SDS011;2057;50.858;6.572;2024-01-07T06:10:41;27.80;;;16.43;;
4084;SDS011;2057;50.858;6.572;2024-01-07T06:13:07;29.05;;;17.80;;
4084;SDS011;2057;50.858;6.572;2024-01-07T06:15:33;32.67;;;17.07;;
4084;SDS011;2057;50.858;6.572;2024-01-07T06:17:58;29.33;;;16.10;;
4084;SDS011;2057;50.858;6.572;2024-01-07T06:20:26;33.30;;;18.77;;
4084;SDS011;2057;50.858;6.572;2024-01-07T06:22:51;32.72;;;18.00;;
4084;SDS011;2057;50.858;6.572;2024-01-07T06:25:17;33.80;;;17.30;;
4084;SDS011;2057;50.858;6.572;2024-01-07T06:27:42;40.13;;;18.70;;
4084;SDS011;2057;50.858;6.572;2024-01-07T06:30:07;31.10;;;17.93;;
4084;SDS011;2057;50.858;6.572;2024-01-07T06:32:35;36.30;;;20.05;;
4084;SDS011;2057;50.858;6.572;2024-01-07T06:40:13;33.95;;;18.33;;
4084;SDS011;2057;50.858;6.572;2024-01-07T06:42:39;33.00;;;19.83;;
4084;SDS011;2057;50.858;6.572;2024-01-07T07:00:35;36.72;;;22.13;;
4084;SDS011;2057;50.858;6.572;2024-01-07T07:03:00;35.73;;;20.90;;
4084;SDS011;2057;50.858;6.572;2024-01-07T07:08:02;36.63;;;21.13;;
4084;SDS011;2057;50.858;6.572;2024-01-07T07:13:02;35.75;;;19.50;;
4084;SDS011;2057;50.858;6.572;2024-01-07T07:15:28;35.03;;;19.70;;
4084;SDS011;2057;50.858;6.572;2024-01-07T07:17:53;35.57;;;22.80;;
4084;SDS011;2057;50.858;6.572;2024-01-07T07:20:18;42.10;;;23.83;;
4084;SDS011;2057;50.858;6.572;2024-01-07T07:22:44;43.30;;;23.10;;
4084;SDS011;2057;50.858;6.572;2024-01-07T07:25:10;41.97;;;21.73;;
4084;SDS011;2057;50.858;6.572;2024-01-07T07:27:35;40.77;;;21.87;;
4084;SDS011;2057;50.858;6.572;2024-01-07T07:30:03;39.58;;;22.30;;
4084;SDS011;2057;50.858;6.572;2024-01-07T07:32:30;43.15;;;24.17;;
4084;SDS011;2057;50.858;6.572;2024-01-07T07:34:55;45.47;;;24.67;;
4084;SDS011;2057;50.858;6.572;2024-01-07T07:37:20;38.70;;;23.90;;
4084;SDS011;2057;50.858;6.572;2024-01-07T07:39:46;41.10;;;23.87;;
4084;SDS011;2057;50.858;6.572;2024-01-07T07:42:11;46.07;;;24.60;;
4084;SDS011;2057;50.858;6.572;2024-01-07T07:44:36;44.47;;;24.87;;
4084;SDS011;2057;50.858;6.572;2024-01-07T07:47:04;39.95;;;22.65;;
4084;SDS011;2057;50.858;6.572;2024-01-07T07:49:32;45.30;;;25.90;;
4084;SDS011;2057;50.858;6.572;2024-01-07T07:51:58;43.30;;;24.00;;
4084;SDS011;2057;50.858;6.572;2024-01-07T07:54:26;40.15;;;23.98;;
4084;SDS011;2057;50.858;6.572;2024-01-07T07:56:51;33.53;;;20.80;;
4084;SDS011;2057;50.858;6.572;2024-01-07T07:59:19;37.78;;;22.40;;
4084;SDS011;2057;50.858;6.572;2024-01-07T08:01:45;36.60;;;21.30;;
4084;SDS011;2057;50.858;6.572;2024-01-07T08:04:14;41.25;;;23.30;;
4084;SDS011;2057;50.858;6.572;2024-01-07T08:06:39;44.97;;;24.00;;
4084;SDS011;2057;50.858;6.572;2024-01-07T08:09:04;40.40;;;22.73;;
4084;SDS011;2057;50.858;6.572;2024-01-07T08:11:30;37.17;;;21.92;;
4084;SDS011;2057;50.858;6.572;2024-01-07T08:13:55;41.27;;;21.40;;
4084;SDS011;2057;50.858;6.572;2024-01-07T08:16:22;48.75;;;27.58;;
4084;SDS011;2057;50.858;6.572;2024-01-07T08:18:48;36.17;;;21.47;;
4084;SDS011;2057;50.858;6.572;2024-01-07T08:21:13;49.00;;;24.40;;
4084;SDS011;2057;50.858;6.572;2024-01-07T08:23:38;39.40;;;23.00;;
4084;SDS011;2057;50.858;6.572;2024-01-07T08:26:04;35.57;;;22.00;;
4084;SDS011;2057;50.858;6.572;2024-01-07T08:28:31;33.25;;;20.63;;
4084;SDS011;2057;50.858;6.572;2024-01-07T08:30:56;38.50;;;21.50;;
4084;SDS011;2057;50.858;6.572;2024-01-07T08:33:24;42.30;;;23.65;;
4084;SDS011;2057;50.858;6.572;2024-01-07T08:35:50;42.70;;;22.13;;
4084;SDS011;2057;50.858;6.572;2024-01-07T08:38:15;39.20;;;23.13;;
4084;SDS011;2057;50.858;6.572;2024-01-07T08:40:40;46.53;;;23.23;;
4084;SDS011;2057;50.858;6.572;2024-01-07T08:43:06;34.90;;;21.47;;
4084;SDS011;2057;50.858;6.572;2024-01-07T08:45:31;42.63;;;23.63;;
4084;SDS011;2057;50.858;6.572;2024-01-07T08:47:57;43.83;;;24.47;;
4084;SDS011;2057;50.858;6.572;2024-01-07T08:50:23;43.40;;;23.43;;
4084;SDS011;2057;50.858;6.572;2024-01-07T08:52:49;39.47;;;24.33;;
4084;SDS011;2057;50.858;6.572;2024-01-07T08:55:14;42.20;;;24.47;;
4084;SDS011;2057;50.858;6.572;2024-01-07T08:57:43;45.63;;;24.48;;
4084;SDS011;2057;50.858;6.572;2024-01-07T09:00:08;42.77;;;24.20;;
4084;SDS011;2057;50.858;6.572;2024-01-07T09:02:34;41.57;;;23.23;;
4084;SDS011;2057;50.858;6.572;2024-01-07T09:05:02;40.85;;;23.55;;
4084;SDS011;2057;50.858;6.572;2024-01-07T09:07:28;40.10;;;23.90;;
4084;SDS011;2057;50.858;6.572;2024-01-07T09:09:53;37.70;;;22.73;;
4084;SDS011;2057;50.858;6.572;2024-01-07T09:12:24;40.75;;;22.13;;
4084;SDS011;2057;50.858;6.572;2024-01-07T09:14:49;44.23;;;24.77;;
4084;SDS011;2057;50.858;6.572;2024-01-07T09:17:14;39.40;;;23.10;;
4084;SDS011;2057;50.858;6.572;2024-01-07T09:19:42;37.33;;;21.65;;
4084;SDS011;2057;50.858;6.572;2024-01-07T09:22:07;39.27;;;23.63;;
4084;SDS011;2057;50.858;6.572;2024-01-07T09:24:36;48.22;;;26.42;;
4084;SDS011;2057;50.858;6.572;2024-01-07T09:27:02;45.47;;;22.83;;
4084;SDS011;2057;50.858;6.572;2024-01-07T09:29:27;45.03;;;25.00;;
4084;SDS011;2057;50.858;6.572;2024-01-07T09:31:53;38.20;;;23.70;;
4084;SDS011;2057;50.858;6.572;2024-01-07T09:34:18;39.93;;;23.03;;
4084;SDS011;2057;50.858;6.572;2024-01-07T10:37:00;38.67;;;20.25;;
4084;SDS011;2057;50.858;6.572;2024-01-07T10:39:26;35.85;;;19.27;;
4084;SDS011;2057;50.858;6.572;2024-01-07T10:41:52;27.42;;;17.90;;
4084;SDS011;2057;50.858;6.572;2024-01-07T10:44:22;25.25;;;15.88;;
4084;SDS011;2057;50.858;6.572;2024-01-07T10:46:53;25.42;;;16.42;;
4084;SDS011;2057;50.858;6.572;2024-01-07T10:49:20;23.20;;;15.50;;
4084;SDS011;2057;50.858;6.572;2024-01-07T10:51:48;24.10;;;13.13;;
4084;SDS011;2057;50.858;6.572;2024-01-07T10:54:20;19.35;;;12.90;;
4084;SDS011;2057;50.858;6.572;2024-01-07T10:56:51;14.25;;;10.10;;
4084;SDS011;2057;50.858;6.572;2024-01-07T10:59:26;13.70;;;9.88;;
4084;SDS011;2057;50.858;6.572;2024-01-07T11:01:56;16.90;;;11.00;;
4084;SDS011;2057;50.858;6.572;2024-01-07T11:04:33;18.43;;;11.57;;
4084;SDS011;2057;50.858;6.572;2024-01-07T11:07:19;17.40;;;11.63;;
4084;SDS011;2057;50.858;6.572;2024-01-07T11:09:56;19.27;;;12.13;;
4084;SDS011;2057;50.858;6.572;2024-01-07T11:12:34;19.05;;;12.38;;
4084;SDS011;2057;50.858;6.572;2024-01-07T11:14:59;18.40;;;12.10;;
4084;SDS011;2057;50.858;6.572;2024-01-07T11:20:04;21.27;;;13.38;;
4084;SDS011;2057;50.858;6.572;2024-01-07T11:25:28;24.10;;;13.05;;
4084;SDS011;2057;50.858;6.572;2024-01-07T11:27:56;15.88;;;12.10;;
4084;SDS011;2057;50.858;6.572;2024-01-07T11:30:22;23.38;;;13.27;;
4084;SDS011;2057;50.858;6.572;2024-01-07T11:32:47;20.33;;;12.90;;
4084;SDS011;2057;50.858;6.572;2024-01-07T11:35:13;21.17;;;12.83;;
4084;SDS011;2057;50.858;6.572;2024-01-07T11:37:38;18.37;;;13.53;;
4084;SDS011;2057;50.858;6.572;2024-01-07T11:40:04;21.80;;;13.27;;
4084;SDS011;2057;50.858;6.572;2024-01-07T11:42:31;21.40;;;13.82;;
4084;SDS011;2057;50.858;6.572;2024-01-07T11:44:57;22.77;;;13.27;;
4084;SDS011;2057;50.858;6.572;2024-01-07T11:47:23;18.87;;;12.97;;
4084;SDS011;2057;50.858;6.572;2024-01-07T11:49:53;31.92;;;15.07;;
4084;SDS011;2057;50.858;6.572;2024-01-07T11:52:18;19.93;;;13.43;;
4084;SDS011;2057;50.858;6.572;2024-01-07T11:54:44;25.60;;;15.25;;
4084;SDS011;2057;50.858;6.572;2024-01-07T11:57:12;28.52;;;13.00;;
4084;SDS011;2057;50.858;6.572;2024-01-07T11:59:38;32.22;;;16.52;;
4084;SDS011;2057;50.858;6.572;2024-01-07T12:02:07;19.15;;;13.55;;
4084;SDS011;2057;50.858;6.572;2024-01-07T12:04:32;22.50;;;13.43;;
4084;SDS011;2057;50.858;6.572;2024-01-07T12:06:58;22.23;;;13.93;;
4084;SDS011;2057;50.858;6.572;2024-01-07T12:09:28;31.42;;;14.52;;
4084;SDS011;2057;50.858;6.572;2024-01-07T12:11:54;23.10;;;15.60;;
4084;SDS011;2057;50.858;6.572;2024-01-07T12:14:19;22.03;;;14.50;;
4084;SDS011;2057;50.858;6.572;2024-01-07T12:16:45;20.43;;;12.97;;
4084;SDS011;2057;50.858;6.572;2024-01-07T12:19:11;23.73;;;14.10;;
4084;SDS011;2057;50.858;6.572;2024-01-07T12:21:37;25.80;;;14.77;;
4084;SDS011;2057;50.858;6.572;2024-01-07T12:24:03;25.83;;;14.43;;
4084;SDS011;2057;50.858;6.572;2024-01-07T12:26:29;22.67;;;13.20;;
4084;SDS011;2057;50.858;6.572;2024-01-07T12:28:55;21.88;;;13.82;;
4084;SDS011;2057;50.858;6.572;2024-01-07T12:31:25;22.33;;;13.23;;
4084;SDS011;2057;50.858;6.572;2024-01-07T12:33:51;32.40;;;14.00;;
4084;SDS011;2057;50.858;6.572;2024-01-07T12:36:19;20.17;;;12.68;;
4084;SDS011;2057;50.858;6.572;2024-01-07T12:49:07;19.77;;;12.80;;
4084;SDS011;2057;50.858;6.572;2024-01-07T14:01:22;14.82;;;8.35;;
4084;SDS011;2057;50.858;6.572;2024-01-07T14:03:47;22.47;;;9.47;;
4084;SDS011;2057;50.858;6.572;2024-01-07T14:06:13;13.80;;;7.27;;
4084;SDS011;2057;50.858;6.572;2024-01-07T14:08:38;11.33;;;7.40;;
4084;SDS011;2057;50.858;6.572;2024-01-07T14:11:03;11.73;;;7.43;;
4084;SDS011;2057;50.858;6.572;2024-01-07T14:13:32;12.35;;;6.85;;
4084;SDS011;2057;50.858;6.572;2024-01-07T14:15:57;14.57;;;9.20;;
4084;SDS011;2057;50.858;6.572;2024-01-07T14:18:22;14.87;;;8.43;;
4084;SDS011;2057;50.858;6.572;2024-01-07T14:23:23;10.23;;;7.65;;
4084;SDS011;2057;50.858;6.572;2024-01-07T14:55:53;12.23;;;6.82;;
4084;SDS011;2057;50.858;6.572;2024-01-07T14:58:26;9.65;;;7.00;;
4084;SDS011;2057;50.858;6.572;2024-01-07T15:01:13;10.10;;;6.78;;
4084;SDS011;2057;50.858;6.572;2024-01-07T15:04:10;6.45;;;5.43;;
4084;SDS011;2057;50.858;6.572;2024-01-07T15:06:53;10.25;;;7.53;;
4084;SDS011;2057;50.858;6.572;2024-01-07T15:09:28;12.30;;;6.88;;
4084;SDS011;2057;50.858;6.572;2024-01-07T15:12:05;10.18;;;6.65;;
4084;SDS011;2057;50.858;6.572;2024-01-07T15:14:39;12.75;;;7.22;;
4084;SDS011;2057;50.858;6.572;2024-01-07T15:17:14;12.75;;;7.75;;
4084;SDS011;2057;50.858;6.572;2024-01-07T15:58:45;14.15;;;5.15;;
4084;SDS011;2057;50.858;6.572;2024-01-07T16:01:11;8.23;;;5.70;;
4084;SDS011;2057;50.858;6.572;2024-01-07T16:03:36;5.63;;;4.37;;
4084;SDS011;2057;50.858;6.572;2024-01-07T16:06:01;8.23;;;4.67;;
4084;SDS011;2057;50.858;6.572;2024-01-07T16:08:27;4.37;;;3.97;;
4084;SDS011;2057;50.858;6.572;2024-01-07T16:10:56;6.82;;;4.53;;
4084;SDS011;2057;50.858;6.572;2024-01-07T16:13:22;7.53;;;4.97;;
4084;SDS011;2057;50.858;6.572;2024-01-07T16:15:48;6.60;;;4.63;;
4084;SDS011;2057;50.858;6.572;2024-01-07T16:18:13;7.20;;;4.37;;
4084;SDS011;2057;50.858;6.572;2024-01-07T16:20:39;13.70;;;4.50;;
4084;SDS011;2057;50.858;6.572;2024-01-07T16:23:08;9.73;;;4.80;;
4084;SDS011;2057;50.858;6.572;2024-01-07T16:25:33;7.75;;;4.15;;
4084;SDS011;2057;50.858;6.572;2024-01-07T16:28:01;4.57;;;3.77;;
4084;SDS011;2057;50.858;6.572;2024-01-07T16:30:27;4.80;;;3.20;;
4084;SDS011;2057;50.858;6.572;2024-01-07T16:32:52;4.27;;;3.87;;
4084;SDS011;2057;50.858;6.572;2024-01-07T16:35:18;8.40;;;3.93;;
4084;SDS011;2057;50.858;6.572;2024-01-07T16:37:44;5.63;;;3.67;;
4084;SDS011;2057;50.858;6.572;2024-01-07T16:40:11;4.50;;;3.80;;
4084;SDS011;2057;50.858;6.572;2024-01-07T16:42:37;4.97;;;3.50;;
4084;SDS011;2057;50.858;6.572;2024-01-07T16:45:03;3.97;;;3.58;;
4084;SDS011;2057;50.858;6.572;2024-01-07T16:47:29;6.88;;;3.38;;
4084;SDS011;2057;50.858;6.572;2024-01-07T16:49:54;4.93;;;3.43;;
4084;SDS011;2057;50.858;6.572;2024-01-07T16:52:20;5.07;;;3.00;;
4084;SDS011;2057;50.858;6.572;2024-01-07T16:54:45;5.73;;;3.93;;
4084;SDS011;2057;50.858;6.572;2024-01-07T16:57:12;4.38;;;3.47;;
4084;SDS011;2057;50.858;6.572;2024-01-07T16:59:37;7.00;;;4.87;;
4084;SDS011;2057;50.858;6.572;2024-01-07T17:02:04;11.85;;;5.60;;
4084;SDS011;2057;50.858;6.572;2024-01-07T17:04:30;4.60;;;3.23;;
4084;SDS011;2057;50.858;6.572;2024-01-07T17:06:55;9.70;;;5.70;;
4084;SDS011;2057;50.858;6.572;2024-01-07T17:09:20;12.90;;;4.07;;
4084;SDS011;2057;50.858;6.572;2024-01-07T17:11:48;5.18;;;4.05;;
4084;SDS011;2057;50.858;6.572;2024-01-07T17:14:14;7.23;;;4.37;;
4084;SDS011;2057;50.858;6.572;2024-01-07T17:16:39;6.07;;;3.97;;
4084;SDS011;2057;50.858;6.572;2024-01-07T17:19:05;5.83;;;3.87;;
4084;SDS011;2057;50.858;6.572;2024-01-07T17:21:30;4.50;;;3.70;;
4084;SDS011;2057;50.858;6.572;2024-01-07T17:23:55;7.10;;;4.50;;
4084;SDS011;2057;50.858;6.572;2024-01-07T17:26:21;7.30;;;3.90;;
4084;SDS011;2057;50.858;6.572;2024-01-07T17:28:48;7.63;;;4.15;;
4084;SDS011;2057;50.858;6.572;2024-01-07T17:31:14;5.20;;;3.40;;
4084;SDS011;2057;50.858;6.572;2024-01-07T17:33:39;5.60;;;4.33;;
4084;SDS011;2057;50.858;6.572;2024-01-07T17:36:05;8.50;;;4.43;;
4084;SDS011;2057;50.858;6.572;2024-01-07T17:38:31;5.47;;;3.88;;
4084;SDS011;2057;50.858;6.572;2024-01-07T17:40:56;6.70;;;4.83;;
4084;SDS011;2057;50.858;6.572;2024-01-07T17:43:22;7.30;;;4.20;;
4084;SDS011;2057;50.858;6.572;2024-01-07T17:45:47;5.93;;;4.60;;
4084;SDS011;2057;50.858;6.572;2024-01-07T17:48:13;6.40;;;4.50;;
4084;SDS011;2057;50.858;6.572;2024-01-07T17:50:39;6.70;;;4.23;;
4084;SDS011;2057;50.858;6.572;2024-01-07T17:55:44;6.20;;;3.95;;
4084;SDS011;2057;50.858;6.572;2024-01-07T17:58:10;5.70;;;4.63;;
4084;SDS011;2057;50.858;6.572;2024-01-07T18:00:35;4.07;;;3.67;;
4084;SDS011;2057;50.858;6.572;2024-01-07T18:03:00;7.17;;;4.43;;
4084;SDS011;2057;50.858;6.572;2024-01-07T18:05:32;5.90;;;4.05;;
4084;SDS011;2057;50.858;6.572;2024-01-07T18:07:59;5.95;;;3.63;;
4084;SDS011;2057;50.858;6.572;2024-01-07T18:10:25;6.27;;;3.83;;
4084;SDS011;2057;50.858;6.572;2024-01-07T18:12:52;8.90;;;3.75;;
4084;SDS011;2057;50.858;6.572;2024-01-07T18:15:18;7.57;;;4.37;;
4084;SDS011;2057;50.858;6.572;2024-01-07T18:17:43;9.30;;;3.57;;
4084;SDS011;2057;50.858;6.572;2024-01-07T18:20:11;5.00;;;3.25;;
4084;SDS011;2057;50.858;6.572;2024-01-07T18:22:36;7.10;;;3.53;;
4084;SDS011;2057;50.858;6.572;2024-01-07T18:25:04;5.13;;;4.00;;
4084;SDS011;2057;50.858;6.572;2024-01-07T18:27:29;5.90;;;3.30;;
4084;SDS011;2057;50.858;6.572;2024-01-07T18:29:55;6.20;;;3.43;;
4084;SDS011;2057;50.858;6.572;2024-01-07T18:32:24;5.10;;;3.42;;
4084;SDS011;2057;50.858;6.572;2024-01-07T18:34:52;5.20;;;4.13;;
4084;SDS011;2057;50.858;6.572;2024-01-07T18:37:19;5.80;;;3.05;;
4084;SDS011;2057;50.858;6.572;2024-01-07T18:39:56;4.40;;;3.30;;
4084;SDS011;2057;50.858;6.572;2024-01-07T18:42:22;5.45;;;3.13;;
4084;SDS011;2057;50.858;6.572;2024-01-07T18:44:48;5.00;;;3.00;;
4084;SDS011;2057;50.858;6.572;2024-01-07T18:47:13;5.60;;;3.70;;
4084;SDS011;2057;50.858;6.572;2024-01-07T18:49:39;8.90;;;4.83;;
4084;SDS011;2057;50.858;6.572;2024-01-07T18:52:05;3.70;;;2.73;;
4084;SDS011;2057;50.858;6.572;2024-01-07T18:54:37;3.30;;;2.90;;
4084;SDS011;2057;50.858;6.572;2024-01-07T18:57:07;2.85;;;2.55;;